createdAt,value
2018-12-10T18:57:13.246Z,4.20
2018-12-10T18:59:40.805Z,4.10
2018-12-10T19:02:08.288Z,4.10
2018-12-10T19:04:35.771Z,4.10
2018-12-10T19:07:03.333Z,4.10
2018-12-10T19:09:30.827Z,4.10
2018-12-10T19:11:59.158Z,4.10
2018-12-10T19:14:26.828Z,4.00
2018-12-10T19:16:54.559Z,4.20
2018-12-10T19:19:22.070Z,4.30
2018-12-10T19:21:49.583Z,4.40
2018-12-10T19:24:17.077Z,4.30
2018-12-10T19:26:44.579Z,4.40
2018-12-10T19:29:12.093Z,4.40
2018-12-10T19:31:39.588Z,4.40
2018-12-10T19:34:07.868Z,4.50
2018-12-10T19:36:35.406Z,4.60
2018-12-10T19:39:04.874Z,4.70
2018-12-10T19:41:32.361Z,4.70
2018-12-10T19:43:59.839Z,4.70
2018-12-10T19:46:27.331Z,4.70
2018-12-10T19:48:54.935Z,4.70
2018-12-10T19:51:22.473Z,4.70
2018-12-10T19:53:49.950Z,4.70
2018-12-10T19:56:17.433Z,4.60
2018-12-10T19:58:44.932Z,4.60
2018-12-10T20:01:13.559Z,4.60
2018-12-10T20:03:41.340Z,4.60
2018-12-10T20:06:15.598Z,4.60
2018-12-10T20:08:43.088Z,4.50
2018-12-10T20:11:10.778Z,4.40
2018-12-10T20:13:38.353Z,4.30
2018-12-10T20:16:06.127Z,4.20
2018-12-10T20:18:33.607Z,4.10
2018-12-10T20:21:01.106Z,4.10
2018-12-10T20:23:28.718Z,4.00
2018-12-10T20:25:56.240Z,3.90
2018-12-10T20:28:23.756Z,3.80
2018-12-10T20:30:51.834Z,3.80
2018-12-10T20:33:19.618Z,3.60
2018-12-10T20:35:47.323Z,3.40
2018-12-10T20:38:14.814Z,3.20
2018-12-10T20:40:42.373Z,3.20
2018-12-10T20:43:09.909Z,3.10
2018-12-10T20:45:37.415Z,3.10
2018-12-10T20:48:04.984Z,3.10
2018-12-10T20:50:32.483Z,3.00
2018-12-10T20:53:00.968Z,3.00
2018-12-10T20:55:28.494Z,3.00
2018-12-10T20:57:56.008Z,2.90
2018-12-10T21:00:23.514Z,2.90
2018-12-10T21:02:51.092Z,3.00
2018-12-10T21:05:18.589Z,3.00
2018-12-10T21:07:46.071Z,3.00
2018-12-10T21:10:13.577Z,3.00
2018-12-10T21:12:41.063Z,3.00
2018-12-10T21:15:08.658Z,3.00
2018-12-10T21:17:36.161Z,3.00
2018-12-10T21:20:05.041Z,3.00
2018-12-10T21:22:32.645Z,3.00
2018-12-10T21:25:00.149Z,3.00
2018-12-10T21:27:27.639Z,3.10
2018-12-10T21:29:55.148Z,3.10
2018-12-10T21:32:22.638Z,3.10
2018-12-10T21:34:50.120Z,3.20
2018-12-10T21:37:17.633Z,3.20
2018-12-10T21:39:45.143Z,3.20
2018-12-10T21:42:12.718Z,3.20
2018-12-10T21:44:40.219Z,3.30
2018-12-10T21:47:07.719Z,3.30
2018-12-10T21:49:35.219Z,3.20
2018-12-10T21:52:02.710Z,3.30
2018-12-10T21:54:30.204Z,3.30
2018-12-10T21:56:57.695Z,3.30
2018-12-10T21:59:25.241Z,3.30
2018-12-10T22:01:53.148Z,3.30
2018-12-10T22:04:20.698Z,3.30
2018-12-10T22:06:48.212Z,3.30
2018-12-10T22:09:15.695Z,3.30
2018-12-10T22:11:43.193Z,3.40
2018-12-10T22:14:10.690Z,3.40
2018-12-10T22:16:38.175Z,3.40
2018-12-10T22:19:05.659Z,3.40
2018-12-10T22:21:33.147Z,3.40
2018-12-10T22:24:00.643Z,3.40
2018-12-10T22:26:28.134Z,3.40
2018-12-10T22:28:55.690Z,3.40
2018-12-10T22:31:23.280Z,3.30
2018-12-10T22:33:50.849Z,3.30
2018-12-10T22:36:18.352Z,3.20
2018-12-10T22:38:45.835Z,3.10
2018-12-10T22:41:13.311Z,3.10
2018-12-10T22:43:40.808Z,3.00
2018-12-10T22:46:08.292Z,3.00
2018-12-10T22:48:35.796Z,3.00
2018-12-10T22:51:03.307Z,3.00
2018-12-10T22:53:30.799Z,2.90
2018-12-10T22:55:58.284Z,2.90
2018-12-10T22:58:25.770Z,2.90
2018-12-10T23:00:53.411Z,2.90
2018-12-10T23:03:20.897Z,2.90
2018-12-10T23:05:48.403Z,2.90
2018-12-10T23:08:16.104Z,2.90
2018-12-10T23:10:43.598Z,2.90
2018-12-10T23:13:11.091Z,2.90
2018-12-10T23:15:38.572Z,2.90
2018-12-10T23:18:06.068Z,2.90
2018-12-10T23:20:33.552Z,2.90
2018-12-10T23:23:01.063Z,2.90
2018-12-10T23:25:28.542Z,2.90
2018-12-10T23:27:56.022Z,2.90
2018-12-10T23:30:23.506Z,2.90
2018-12-10T23:32:51.000Z,3.00
2018-12-10T23:35:18.531Z,3.00
2018-12-10T23:37:46.013Z,3.00
2018-12-10T23:40:13.496Z,3.00
2018-12-10T23:42:42.946Z,3.10
2018-12-10T23:45:10.428Z,3.10
2018-12-10T23:47:37.912Z,3.10
2018-12-10T23:50:05.418Z,3.10
2018-12-10T23:52:32.999Z,3.10
2018-12-10T23:55:00.499Z,3.10
2018-12-10T23:57:27.978Z,3.10
2018-12-10T23:59:55.470Z,3.10
